NEODyS-2

Near Earth Objects - Dynamic Site
NEODyS ∴ Observatories ∴ Site 691 ∴ Obs & residuals
Contact »
691  ▹ 
OBSERVATIONS AND RESIDUALS

691-Steward Observatory, Kitt Peak-Spacewatch

Detections | Residuals | Detections & Residuals

[1-200] [201-400] [401-600] [601-800] [801-1000] [1001-1200] [1201-1400] [1401-1600] [1601-1800] [1801-2000] [2001-2200] [2201-2400] [2401-2600] [2601-2800] [2801-3000] [3001-3200] [3201-3400] [3401-3600] [3601-3800] [3801-4000] [4001-4200] [4201-4400] [4401-4600] [4601-4800] [4801-5000] [5001-5200] [5201-5400] [5401-5600] [5601-5800] [5801-6000] [6001-6200] [6201-6400] [6401-6600] [6601-6800] [6801-7000] [7001-7200] [7201-7400] [7401-7600] [7601-7800] [7801-8000] [8001-8200] [8201-8400] [8401-8600] [8601-8800] [8801-9000] [9001-9200] [9201-9400] [9401-9600] [9601-9800] [9801-10000] [10001-10200] [10201-10400] [10401-10600] [10601-10800] [10801-11000] [11001-11200] [11201-11400] [11401-11600] [11601-11800] [11801-12000] [12001-12200] [12201-12400] [12401-12600] [12601-12800] [12801-13000] [13001-13200] [13201-13400] [13401-13600] [13601-13800] [13801-14000] [14001-14200] [14201-14400] [14401-14600] [14601-14800] [14801-15000] [15001-15200] [15201-15400] [15401-15600] [15601-15800] [15801-16000] [16001-16200] [16201-16400] [16401-16600] [16601-16800] [16801-17000] [17001-17200] [17201-17400] [17401-17600] [17601-17800] [17801-18000] [18001-18200] [18201-18400] [18401-18600] [18601-18800] [18801-19000] [19001-19200] [19201-19400] [19401-19600] [19601-19800] [19801-20000] [20001-20200] [20201-20400] [20401-20600] [20601-20800] [20801-21000] [21001-21200] [21201-21400] [21401-21600] [21601-21800] [21801-22000] [22001-22200] [22201-22400] [22401-22600] [22601-22800] [22801-23000] [23001-23200] [23201-23400] [23401-23600] [23601-23800] [23801-24000] [24001-24200] [24201-24400] [24401-24600] [24601-24800] [24801-25000] [25001-25200] [25201-25400] [25401-25600] [25601-25800] [25801-26000] [26001-26200] [26201-26400] [26401-26600] [26601-26800] [26801-27000] [27001-27200] [27201-27400] [27401-27600] [27601-27800] [27801-28000] [28001-28200] [28201-28400] [28401-28600] [28601-28800] [28801-29000] [29001-29200] [29201-29400] [29401-29600] [29601-29800] [29801-30000] [30001-30200] [30201-30400] [30401-30600] [30601-30800] [30801-31000] [31001-31200] [31201-31400] [31401-31600] [31601-31800] [31801-32000] [32001-32200] [32201-32400] [32401-32600] [32601-32800] [32801-33000] [33001-33200] [33201-33400] [33401-33600] [33601-33800] [33801-34000] [34001-34200] [34201-34400] [34401-34600] [34601-34800] [34801-35000] [35001-35200] [35201-35400] [35401-35600] [35601-35800] [35801-36000] [36001-36200] [36201-36400] [36401-36600] [36601-36800] [36801-37000] [37001-37200] [37201-37400] [37401-37600] [37601-37800] [37801-38000] [38001-38200] [38201-38400] [38401-38600] [38601-38800] [38801-39000] [39001-39200] [39201-39400] [39401-39600] [39601-39800] [39801-40000] [40001-40200] [40201-40400] [40401-40600] [40601-40800] [40801-41000] [41001-41200] [41201-41400] [41401-41600] [41601-41800] [41801-42000] [42001-42200] [42201-42400] [42401-42600] [42601-42800] [42801-43000] [43001-43200] [43201-43400] [43401-43600] [43601-43800] [43801-44000] [44001-44200] [44201-44400] [44401-44600] [44601-44800] [44801-45000] [45001-45200] [45201-45400] [45401-45600] [45601-45800] [45801-46000] [46001-46200] [46201-46400] [46401-46600] [46601-46800] [46801-47000] [47001-47200] [47201-47400] [47401-47600] [47601-47800] [47801-48000] [48001-48200] [48201-48400] [48401-48600] [48601-48800] [48801-49000] [49001-49200] [49201-49400] [49401-49600] [49601-49800] [49801-50000] [50001-50200] [50201-50388]

Designation T Tech N Date Right Ascension Declination Apparent Magnitude Star Catalog Site code χ Used A Used M
yr-mo-day precision hr:min:sec precision rms F bias residual deg min sec precision rms F bias residual mag/col rms residual
1998SH2 O c 1998-09-18.32688 1.000E-05 01:02:50.360 1.500E-01 0.735 F -0.260 0.400 +02° 59' 00.20" 1.000E-01 0.735 F 0.217 -0.195 19.3 V 0.70 0.35 i 691 0.61 Yes Yes
1998SH2 O c 1998-09-18.47723 1.000E-05 01:02:13.290 1.500E-01 0.735 F -0.260 0.186 +02° 57' 57.30" 1.000E-01 0.735 F 0.217 -0.181 19.2 V 0.70 0.24 i 691 0.36 Yes Yes
1998SH2 O c 1998-09-18.48130 1.000E-05 01:02:12.310 1.500E-01 0.735 F -0.260 0.295 +02° 57' 55.70" 1.000E-01 0.735 F 0.217 -0.066 19.1 V 0.70 0.14 i 691 0.42 Yes Yes
1998SH2 O c 1998-09-18.48538 1.000E-05 01:02:11.330 1.500E-01 0.735 F -0.260 0.422 +02° 57' 53.80" 1.000E-01 0.735 F 0.217 -0.246 19.1 V 0.70 0.14 i 691 0.67 Yes Yes
1998SH2 O c 1998-09-19.34069 1.000E-05 00:58:59.500 1.500E-01 0.600 F -0.272 0.311 +02° 52' 06.70" 1.000E-01 0.600 F 0.385 -0.695 19.0 V 0.70 0.00 i 691 1.28 Yes Yes
1998SH2 O c 1998-09-19.34452 1.000E-05 00:58:58.610 1.500E-01 0.600 F -0.272 0.334 +02° 52' 05.30" 1.000E-01 0.600 F 0.385 -0.574 18.9 V 0.70 -0.10 i 691 1.12 Yes Yes
1998SH2 O c 1998-09-19.34873 1.000E-05 00:58:57.650 1.500E-01 0.600 F -0.272 0.631 +02° 52' 03.60" 1.000E-01 0.600 F 0.385 -0.602 19.0 V 0.70 0.00 i 691 1.47 Yes Yes
1998SL36 O c 1998-09-24.16604 1.000E-05 22:27:29.320 1.500E-01 0.600 F 0.187 -0.638 -09° 56' 51.10" 1.000E-01 0.600 F -0.061 0.069 20.3 V 0.70 0.11 i 691 1.08 Yes Yes
1998SL36 O c 1998-09-24.18696 1.000E-05 22:27:24.820 1.500E-01 0.600 F 0.187 -0.567 -09° 56' 31.90" 1.000E-01 0.600 F -0.061 0.260 20.0 V 0.70 -0.19 i 691 1.05 Yes Yes
1998SL36 O c 1998-09-24.20793 1.000E-05 22:27:20.330 1.500E-01 0.600 F 0.187 -0.103 -09° 56' 13.40" 1.000E-01 0.600 F -0.061 -0.356 20.0 V 0.70 -0.19 i 691 0.63 Yes Yes
1998SL36 O c 1998-09-25.10234 1.000E-05 22:24:14.950 1.500E-01 0.600 F 0.232 1.216 -09° 42' 20.60" 1.000E-01 0.600 F -0.045 -0.011 20.5 V 0.70 0.29 i 691 2.06 Yes Yes
1998SL36 O c 1998-09-25.10655 1.000E-05 22:24:14.030 1.500E-01 0.600 F 0.232 0.837 -09° 42' 16.60" 1.000E-01 0.600 F -0.045 0.074 20.2 V 0.70 -0.01 i 691 1.43 Yes Yes
1998SL36 O c 1998-09-25.35448 1.000E-05 22:23:20.990 1.500E-01 0.600 F 0.500 -0.048 -09° 38' 21.80" 1.000E-01 0.600 F -0.397 0.597 20.5 V 0.70 0.28 i 691 1.01 Yes Yes
1998SL36 O c 1998-09-25.35884 1.000E-05 22:23:20.080 1.500E-01 0.600 F 0.500 0.175 -09° 38' 18.30" 1.000E-01 0.600 F -0.397 -0.101 20.6 V 0.70 0.38 i 691 0.34 Yes Yes
1998SL36 O c 1998-09-26.20241 1.000E-05 22:20:26.990 1.500E-01 0.600 F 0.500 -0.209 -09° 24' 47.00" 1.000E-01 0.600 F -0.397 0.275 19.9 V 0.70 -0.34 i 691 0.58 Yes Yes
1998SL36 O c 1998-09-26.20756 1.000E-05 22:20:25.890 1.500E-01 0.600 F 0.500 -0.273 -09° 24' 42.10" 1.000E-01 0.600 F -0.397 0.171 20.2 V 0.70 -0.04 i 691 0.54 Yes Yes
1998SL36 O c 1998-09-26.21148 1.000E-05 22:20:25.080 1.500E-01 0.600 F 0.500 0.083 -09° 24' 37.10" 1.000E-01 0.600 F -0.397 1.359 20.2 V 0.70 -0.04 i 691 2.31 Yes Yes
1998SL36 O c 1998-09-29.11484 1.000E-05 22:10:38.200 1.500E-01 0.735 F -0.193 0.365 -08° 35' 36.40" 1.000E-01 0.735 F -0.265 0.363 20.6 V 0.70 0.29 i 691 0.71 Yes Yes
1998SL36 O c 1998-09-29.11884 1.000E-05 22:10:37.360 1.500E-01 0.735 F -0.193 0.044 -08° 35' 32.10" 1.000E-01 0.735 F -0.265 0.500 20.2 V 0.70 -0.11 i 691 0.69 Yes Yes
1998SL36 O c 1998-09-29.12278 1.000E-05 22:10:36.560 1.500E-01 0.735 F -0.193 0.139 -08° 35' 28.10" 1.000E-01 0.735 F -0.265 0.398 20.9 V 0.70 0.59 i 691 0.58 Yes Yes
1998SL36 O c 1998-09-29.30128 1.000E-05 22:09:59.910 1.500E-01 0.735 F -0.193 -0.156 -08° 32' 20.30" 1.000E-01 0.735 F -0.265 0.396 20.4 V 0.70 0.09 i 691 0.58 Yes Yes
1998SL36 O c 1998-09-29.30505 1.000E-05 22:09:59.160 1.500E-01 0.735 F -0.193 0.136 -08° 32' 16.10" 1.000E-01 0.735 F -0.265 0.589 20.2 V 0.70 -0.11 i 691 0.83 Yes Yes
1998SL36 O c 1998-09-29.30897 1.000E-05 22:09:58.360 1.500E-01 0.735 F -0.193 0.134 -08° 32' 12.20" 1.000E-01 0.735 F -0.265 0.320 20.0 V 0.70 -0.31 i 691 0.48 Yes Yes
1995OO O C 1998-09-30.10718 1.000E-05 22:34:34.100 1.500E-01 0.600 F -0.369 -0.694 -09° 55' 59.90" 1.000E-01 0.600 F -0.121 -0.221 22.4 V 0.70 1.77 a 691 1.22 Yes Yes
1995OO O C 1998-09-30.12992 1.000E-05 22:34:32.520 1.500E-01 0.600 F -0.369 0.308 -09° 56' 00.80" 1.000E-01 0.600 F -0.121 -0.615 22.4 V 0.70 1.77 a 691 1.15 Yes Yes
1995OO O C 1998-09-30.15096 1.000E-05 22:34:31.000 1.500E-01 0.600 F -0.369 0.409 -09° 56' 00.50" 1.000E-01 0.600 F -0.121 0.137 21.9 V 0.70 1.27 a 691 0.72 Yes Yes
1998SJ70 O c 1998-10-13.20982 1.000E-05 01:11:21.530 1.500E-01 0.600 F -0.215 -0.024 +05° 38' 39.60" 1.000E-01 0.600 F 0.232 -0.123 18.0 V 0.70 0.07 i 691 0.21 Yes Yes
1998SJ70 O c 1998-10-13.23079 1.000E-05 01:11:18.300 1.500E-01 0.600 F -0.215 -0.657 +05° 38' 34.70" 1.000E-01 0.600 F 0.232 -2.870 17.5 V 0.70 -0.43 i 691 4.86 No Yes
1998SJ70 O c 1998-10-13.25183 1.000E-05 01:11:15.130 1.500E-01 0.600 F -0.215 -0.172 +05° 38' 35.10" 1.000E-01 0.600 F 0.232 -0.289 17.9 V 0.70 -0.03 i 691 0.57 Yes Yes
1998TX6 O c 1998-10-14.38319 1.000E-05 03:03:00.450 1.500E-01 0.600 F -0.379 0.392 +17° 22' 29.10" 1.000E-01 0.600 F 0.716 -0.980 20.1 V 0.70 0.32 i 691 1.77 Yes Yes
1998TX6 O c 1998-10-14.40546 1.000E-05 03:02:58.620 1.500E-01 0.600 F -0.379 0.305 +17° 22' 11.60" 1.000E-01 0.600 F 0.716 -0.794 20.0 V 0.70 0.22 i 691 1.43 Yes Yes
1998TX6 O c 1998-10-14.42747 1.000E-05 03:02:56.820 1.500E-01 0.600 F -0.379 0.305 +17° 21' 54.00" 1.000E-01 0.600 F 0.716 -0.842 19.8 V 0.70 0.02 i 691 1.50 Yes Yes
1998TX6 O c 1998-10-15.30928 1.000E-05 03:01:49.320 1.500E-01 0.735 F -0.379 -0.245 +17° 10' 14.60" 1.000E-01 0.735 F 0.716 -0.430 19.8 V 0.70 0.03 i 691 0.68 Yes Yes
1998TX6 O c 1998-10-15.31342 1.000E-05 03:01:48.970 1.500E-01 0.735 F -0.379 -0.342 +17° 10' 11.20" 1.000E-01 0.735 F 0.716 -0.571 19.7 V 0.70 -0.07 i 691 0.91 Yes Yes
1998TX6 O c 1998-10-15.31817 1.000E-05 03:01:48.590 1.500E-01 0.735 F -0.379 -0.140 +17° 10' 07.70" 1.000E-01 0.735 F 0.716 -0.328 19.7 V 0.70 -0.07 i 691 0.49 Yes Yes
1998TX6 O c 1998-10-15.46372 1.000E-05 03:01:36.540 1.500E-01 0.735 F -0.379 0.619 +17° 08' 11.50" 1.000E-01 0.735 F 0.716 -0.257 20.2 V 0.70 0.43 i 691 0.92 Yes Yes
1998TX6 O c 1998-10-15.46803 1.000E-05 03:01:36.200 1.500E-01 0.735 F -0.379 0.844 +17° 08' 05.60" 1.000E-01 0.735 F 0.716 -2.669 20.0 V 0.70 0.23 i 691 3.80 No Yes
1998TX6 O c 1998-10-15.47188 1.000E-05 03:01:35.830 1.500E-01 0.735 F -0.379 0.091 +17° 08' 04.70" 1.000E-01 0.735 F 0.716 -0.452 20.5 V 0.70 0.73 i 691 0.63 Yes Yes
1998TX6 O c 1998-10-16.41778 1.000E-05 03:00:21.680 1.500E-01 0.600 F -0.379 0.634 +16° 55' 30.40" 1.000E-01 0.600 F 0.716 -0.262 19.8 V 0.70 0.05 i 691 1.15 Yes Yes
1998TX6 O c 1998-10-16.42190 1.000E-05 03:00:21.260 1.500E-01 0.600 F -0.379 -0.404 +16° 55' 27.00" 1.000E-01 0.600 F 0.716 -0.336 20.3 V 0.70 0.55 i 691 0.88 Yes Yes
1998TX6 O c 1998-10-16.42608 1.000E-05 03:00:20.930 1.500E-01 0.600 F -0.379 -0.080 +16° 55' 23.30" 1.000E-01 0.600 F 0.716 -0.659 20.3 V 0.70 0.55 i 691 1.11 Yes Yes
1996TR6 O c 1998-10-16.43447 1.000E-05 03:59:33.120 1.500E-01 0.600 F -0.368 -0.214 +00° 47' 49.40" 1.000E-01 0.600 F 0.486 -0.551 19.5 V 0.70 -0.01 i 691 0.99 Yes Yes
1996TR6 O c 1998-10-16.44034 1.000E-05 03:59:32.930 1.500E-01 0.600 F -0.368 0.287 +00° 47' 36.20" 1.000E-01 0.600 F 0.486 -0.498 19.6 V 0.70 0.09 i 691 0.96 Yes Yes
1996TR6 O c 1998-10-16.44592 1.000E-05 03:59:32.730 1.500E-01 0.600 F -0.368 0.471 +00° 47' 23.30" 1.000E-01 0.600 F 0.486 -0.799 19.7 V 0.70 0.19 i 691 1.55 Yes Yes
1998SJ70 O c 1998-10-18.14546 1.000E-05 01:00:33.410 1.500E-01 0.600 F -0.563 -0.401 +05° 31' 04.60" 1.000E-01 0.600 F 0.497 -0.407 18.8 V 0.70 0.31 i 691 0.96 Yes Yes
1998SJ70 O c 1998-10-18.16677 1.000E-05 01:00:30.860 1.500E-01 0.600 F -0.563 -0.109 +05° 31' 02.90" 1.000E-01 0.600 F 0.497 -0.621 18.8 V 0.70 0.31 i 691 1.06 Yes Yes
1998SJ70 O c 1998-10-18.18858 1.000E-05 01:00:28.190 1.500E-01 0.600 F -0.563 -0.591 +05° 31' 01.60" 1.000E-01 0.600 F 0.497 -0.385 19.0 V 0.70 0.51 i 691 1.19 Yes Yes
1998TX6 O c 1998-10-18.36017 1.000E-05 02:57:45.890 1.500E-01 0.600 F -0.088 1.001 +16° 29' 31.30" 1.000E-01 0.600 F 0.381 -0.306 19.7 V 0.70 -0.03 i 691 1.76 Yes Yes
1998TX6 O c 1998-10-18.38276 1.000E-05 02:57:43.890 1.500E-01 0.600 F -0.088 0.394 +16° 29' 13.50" 1.000E-01 0.600 F 0.381 0.107 19.6 V 0.70 -0.13 i 691 0.69 Yes Yes
1998TX6 O c 1998-10-18.41333 1.000E-05 02:57:41.280 1.500E-01 0.600 F -0.088 0.906 +16° 28' 48.20" 1.000E-01 0.600 F 0.381 -0.436 19.8 V 0.70 0.07 i 691 1.69 Yes Yes
1998SJ70 O c 1998-10-22.31323 1.000E-05 00:53:14.600 1.500E-01 0.600 F -0.520 0.615 +05° 26' 59.00" 1.000E-01 0.600 F -0.134 0.429 18.9 V 0.70 0.00 i 691 1.26 Yes Yes
1998SJ70 O c 1998-10-22.33464 1.000E-05 00:53:12.490 1.500E-01 0.600 F -0.520 0.634 +05° 26' 57.50" 1.000E-01 0.600 F -0.134 -0.115 18.9 V 0.70 0.00 i 691 1.08 Yes Yes
1998SJ70 O c 1998-10-22.35575 1.000E-05 00:53:10.430 1.500E-01 0.600 F -0.520 0.828 +05° 26' 56.50" 1.000E-01 0.600 F -0.134 -0.158 18.9 V 0.70 0.00 i 691 1.42 Yes Yes
1998US18 O c 1998-10-25.13526 1.000E-05 22:23:44.120 1.500E-01 0.849 F 0.886 0.663 -07° 05' 29.60" 1.000E-01 0.849 F 0.036 0.363 18.3 V 0.70 -0.42 i 691 0.92 Yes Yes
1998US18 O c 1998-10-25.14398 1.000E-05 22:23:52.910 1.500E-01 0.849 F 0.886 -0.130 -07° 05' 26.70" 1.000E-01 0.849 F 0.036 0.130 18.2 V 0.70 -0.52 i 691 0.22 Yes Yes
1998US18 O c 1998-10-25.15245 1.000E-05 22:24:01.560 1.500E-01 0.849 F 0.850 0.896 -07° 05' 23.70" 1.000E-01 0.849 F 0.097 -0.005 18.2 V 0.70 -0.52 i 691 1.09 Yes Yes
1998US18 O c 1998-10-25.15819 1.000E-05 22:24:07.380 1.500E-01 0.849 F 0.850 0.989 -07° 05' 21.80" 1.000E-01 0.849 F 0.097 -0.204 18.2 V 0.70 -0.52 i 691 1.23 Yes Yes
1998US18 O c 1998-10-25.17983 1.000E-05 22:24:29.330 1.500E-01 0.849 F 0.850 1.768 -07° 05' 13.50" 1.000E-01 0.849 F 0.097 0.060 18.2 V 0.70 -0.52 i 691 2.15 Yes Yes
1998US18 O c 1998-10-25.20115 1.000E-05 22:24:50.810 1.500E-01 0.849 F 0.814 0.773 -07° 05' 05.60" 1.000E-01 0.849 F 0.396 -0.441 18.2 V 0.70 -0.52 i 691 1.07 Yes Yes
1998US18 O c 1998-10-25.24484 1.000E-05 22:25:34.800 1.500E-01 0.849 F 0.814 -1.153 -07° 04' 47.90" 1.000E-01 0.849 F 0.396 0.107 18.2 V 0.70 -0.52 i 691 1.41 Yes Yes
1998US18 O c 1998-10-25.25796 1.000E-05 22:25:48.180 1.500E-01 0.849 F 0.814 0.839 -07° 04' 42.30" 1.000E-01 0.849 F 0.396 0.420 18.2 V 0.70 -0.52 i 691 1.14 Yes Yes
1998US18 O c 1998-10-27.09377 1.000E-05 22:55:01.740 1.500E-01 0.600 F -0.151 -0.626 -06° 49' 54.40" 1.000E-01 0.600 F -0.200 -0.030 19.0 V 0.70 0.21 i 691 1.11 Yes Yes
1998TX6 O C 1998-10-27.42548 1.000E-05 02:45:12.990 1.500E-01 0.600 F 0.574 -0.234 +14° 29' 14.20" 1.000E-01 0.600 F 0.119 -0.248 20.7 V 0.70 1.09 a 691 0.57 Yes Yes
1998TX6 O C 1998-10-27.44725 1.000E-05 02:45:11.120 1.500E-01 0.600 F 0.574 -0.144 +14° 28' 57.10" 1.000E-01 0.600 F 0.119 -0.276 20.7 V 0.70 1.09 a 691 0.52 Yes Yes
1998TX6 O C 1998-10-27.46903 1.000E-05 02:45:09.250 1.500E-01 0.600 F 0.574 -0.197 +14° 28' 39.80" 1.000E-01 0.600 F 0.119 -0.461 20.8 V 0.70 1.19 a 691 0.84 Yes Yes
1998US18 O c 1998-10-28.27575 1.000E-05 23:11:24.100 1.500E-01 0.600 F -0.964 -0.777 -06° 37' 50.20" 1.000E-01 0.600 F 0.573 -0.118 18.6 V 0.70 -0.26 i 691 1.38 Yes Yes
1998TX6 O c 1998-10-28.36310 1.000E-05 02:43:56.180 1.500E-01 0.600 F -0.140 -1.667 +14° 17' 14.30" 1.000E-01 0.600 F 0.393 -0.152 19.7 V 0.70 0.11 i 691 2.82 Yes Yes
1998TX6 O c 1998-10-28.36699 1.000E-05 02:43:55.890 1.500E-01 0.600 F -0.140 -0.992 +14° 17' 11.30" 1.000E-01 0.600 F 0.393 -0.160 19.7 V 0.70 0.11 i 691 1.69 Yes Yes
1998TX6 O c 1998-10-28.37106 1.000E-05 02:43:55.560 1.500E-01 0.600 F -0.140 -0.675 +14° 17' 07.60" 1.000E-01 0.600 F 0.393 -0.728 19.8 V 0.70 0.21 i 691 1.67 Yes Yes
1998VD35 O c 1998-11-15.29071 1.000E-05 03:22:27.390 1.500E-01 0.600 F -0.129 -0.845 +16° 32' 47.30" 1.000E-01 0.600 F -0.058 0.237 19.6 V 0.70 -0.03 i 691 1.51 Yes Yes
1998VD35 O c 1998-11-15.31268 1.000E-05 03:22:24.600 1.500E-01 0.600 F -0.129 -0.594 +16° 32' 20.00" 1.000E-01 0.600 F -0.058 0.171 19.6 V 0.70 -0.03 i 691 1.06 Yes Yes
1998VD35 O c 1998-11-15.33465 1.000E-05 03:22:21.770 1.500E-01 0.600 F -0.129 -0.920 +16° 31' 52.70" 1.000E-01 0.600 F -0.058 0.209 19.6 V 0.70 -0.03 i 691 1.62 Yes Yes
1998WL4 O c 1998-11-16.16738 1.000E-05 02:26:10.910 1.500E-01 0.600 F 0.069 -0.295 +14° 08' 21.80" 1.000E-01 0.600 F -0.277 -0.248 21.0 V 0.70 -0.05 i 691 0.65 Yes Yes
1998WL4 O c 1998-11-16.18876 1.000E-05 02:26:08.620 1.500E-01 0.600 F 0.069 -0.008 +14° 07' 52.90" 1.000E-01 0.600 F -0.277 0.142 21.0 V 0.70 -0.05 i 691 0.24 Yes Yes
1998WL4 O c 1998-11-16.23175 1.000E-05 02:26:03.940 1.500E-01 0.600 F 0.069 -0.435 +14° 06' 53.70" 1.000E-01 0.600 F -0.277 -0.114 20.6 V 0.70 -0.45 i 691 0.76 Yes Yes
1994VA1 O c 1998-11-16.25457 1.000E-05 02:39:22.880 1.500E-01 0.600 F -0.083 0.831 +16° 28' 55.90" 1.000E-01 0.600 F 0.515 -0.402 20.3 V 0.70 0.11 i 691 1.55 Yes Yes
1994VA1 O c 1998-11-16.27638 1.000E-05 02:39:20.930 1.500E-01 0.600 F -0.083 0.450 +16° 28' 37.30" 1.000E-01 0.600 F 0.515 -0.275 20.1 V 0.70 -0.09 i 691 0.88 Yes Yes
1994VA1 O c 1998-11-16.29813 1.000E-05 02:39:19.000 1.500E-01 0.600 F -0.083 0.263 +16° 28' 18.50" 1.000E-01 0.600 F 0.515 -0.347 20.1 V 0.70 -0.09 i 691 0.73 Yes Yes
1998VD35 O c 1998-11-16.31052 1.000E-05 03:20:22.610 1.500E-01 0.600 F -0.129 0.534 +16° 11' 24.40" 1.000E-01 0.600 F -0.058 -0.133 20.3 V 0.70 0.66 i 691 0.95 Yes Yes
1998VD35 O c 1998-11-16.32491 1.000E-05 03:20:20.720 1.500E-01 0.600 F -0.102 0.407 +16° 11' 06.40" 1.000E-01 0.600 F -0.276 0.510 19.8 V 0.70 0.16 i 691 1.13 Yes Yes
1998VD35 O c 1998-11-16.33960 1.000E-05 03:20:18.790 1.500E-01 0.600 F -0.102 0.281 +16° 10' 47.60" 1.000E-01 0.600 F -0.276 0.564 19.8 V 0.70 0.16 i 691 1.09 Yes Yes
1998WL4 O c 1998-11-17.28906 1.000E-05 02:24:15.680 1.500E-01 0.600 F 0.069 -1.026 +13° 43' 05.10" 1.000E-01 0.600 F -0.277 0.132 21.3 V 0.70 0.17 i 691 1.76 Yes Yes
1998WL4 O c 1998-11-17.29461 1.000E-05 02:24:15.180 1.500E-01 0.600 F 0.069 0.050 +13° 42' 57.70" 1.000E-01 0.600 F -0.277 0.122 21.5 V 0.70 0.37 i 691 0.22 Yes Yes
1998WL4 O c 1998-11-17.30055 1.000E-05 02:24:14.530 1.500E-01 0.600 F 0.069 -0.476 +13° 42' 49.00" 1.000E-01 0.600 F -0.277 -0.668 21.2 V 0.70 0.07 i 691 1.39 Yes Yes
Tomaiyowit O c 1998-11-17.31708 1.000E-05 02:32:50.030 1.500E-01 0.600 F 0.038 0.193 +17° 11' 03.80" 1.000E-01 0.600 F 0.112 0.170 14.0 V 0.70 0.02 i 691 0.44 Yes Yes
Tomaiyowit O c 1998-11-17.33927 1.000E-05 02:32:41.310 1.500E-01 0.600 F -0.090 0.669 +17° 08' 02.30" 1.000E-01 0.600 F 0.278 -0.154 13.8 V 0.70 -0.17 i 691 1.16 Yes Yes
Tomaiyowit O c 1998-11-17.36118 1.000E-05 02:32:32.660 1.500E-01 0.600 F -0.090 -0.122 +17° 05' 01.90" 1.000E-01 0.600 F 0.278 -0.642 13.9 V 0.70 -0.07 i 691 1.09 Yes Yes
1998WT30 O C 1998-11-17.38759 1.000E-05 03:37:54.870 1.500E-01 0.600 F 0.371 -0.282 +19° 50' 21.60" 1.000E-01 0.600 F -0.580 0.161 22.1 V 0.70 1.51 a 691 0.55 Yes Yes
1998WT30 O C 1998-11-17.41086 1.000E-05 03:37:52.670 1.500E-01 0.600 F 0.371 -0.111 +19° 50' 15.20" 1.000E-01 0.600 F -0.580 0.409 21.9 V 0.70 1.31 a 691 0.71 Yes Yes
1998WT30 O C 1998-11-17.43324 1.000E-05 03:37:50.550 1.500E-01 0.600 F 0.371 -0.114 +19° 50' 08.80" 1.000E-01 0.600 F -0.580 0.457 21.8 V 0.70 1.21 a 691 0.79 Yes Yes
Tatsunokingo O c 1998-11-19.13225 1.000E-05 03:01:13.790 1.500E-01 0.600 F -0.283 0.124 +17° 39' 15.80" 1.000E-01 0.600 F 0.459 -0.171 20.6 V 0.70 -0.13 i 691 0.36 Yes Yes
Tatsunokingo O c 1998-11-19.15424 1.000E-05 03:01:11.520 1.500E-01 0.600 F -0.283 0.308 +17° 39' 12.60" 1.000E-01 0.600 F 0.459 -0.674 20.6 V 0.70 -0.13 i 691 1.24 Yes Yes
Tatsunokingo O c 1998-11-19.17618 1.000E-05 03:01:09.150 1.500E-01 0.600 F -0.283 -0.934 +17° 39' 10.30" 1.000E-01 0.600 F 0.459 -0.256 20.5 V 0.70 -0.23 i 691 1.60 Yes Yes
1998WL4 O c 1998-11-19.20056 1.000E-05 02:21:13.120 1.500E-01 0.600 F -0.223 -1.125 +13° 02' 05.10" 1.000E-01 0.600 F 0.312 0.433 20.4 V 0.70 -0.87 i 691 2.05 Yes Yes
1998WL4 O c 1998-11-19.22195 1.000E-05 02:21:11.170 1.500E-01 0.600 F -0.223 0.070 +13° 01' 37.90" 1.000E-01 0.600 F 0.312 -0.174 21.5 V 0.70 0.23 i 691 0.32 Yes Yes
1998WL4 O c 1998-11-19.24337 1.000E-05 02:21:09.160 1.500E-01 0.600 F -0.223 0.424 +13° 01' 11.10" 1.000E-01 0.600 F 0.312 -0.330 21.3 V 0.70 0.02 i 691 0.91 Yes Yes
1998WL4 O c 1998-11-22.24117 1.000E-05 02:16:54.160 1.500E-01 0.600 F -0.087 -0.039 +12° 02' 11.50" 1.000E-01 0.600 F 0.197 -0.216 21.6 V 0.70 0.12 i 691 0.37 Yes Yes
1998WL4 O c 1998-11-22.24520 1.000E-05 02:16:53.860 1.500E-01 0.600 F -0.087 0.424 +12° 02' 07.20" 1.000E-01 0.600 F 0.197 -0.010 21.2 V 0.70 -0.28 i 691 0.72 Yes Yes
1998WL4 O c 1998-11-22.24922 1.000E-05 02:16:53.520 1.500E-01 0.600 F -0.087 0.286 +12° 02' 02.70" 1.000E-01 0.600 F 0.197 -0.016 21.1 V 0.70 -0.38 i 691 0.49 Yes Yes
1998VD35 O c 1998-11-22.37501 1.000E-05 03:07:04.610 1.500E-01 0.600 F -0.111 -0.089 +13° 51' 46.70" 1.000E-01 0.600 F -0.111 -0.164 19.6 V 0.70 -0.16 i 691 0.32 Yes Yes
1998VD35 O c 1998-11-22.38092 1.000E-05 03:07:03.800 1.500E-01 0.600 F -0.111 0.491 +13° 51' 38.00" 1.000E-01 0.600 F -0.111 -0.021 19.6 V 0.70 -0.16 i 691 0.85 Yes Yes
1998VD35 O c 1998-11-22.38656 1.000E-05 03:07:02.960 1.500E-01 0.600 F -0.111 0.056 +13° 51' 29.70" 1.000E-01 0.600 F -0.111 0.124 19.6 V 0.70 -0.16 i 691 0.23 Yes Yes
1994VA1 O C 1998-11-23.16263 1.000E-05 02:30:19.940 1.500E-01 0.600 F 0.275 0.666 +14° 51' 57.00" 1.000E-01 0.600 F 0.019 -0.199 21.5 V 0.70 1.08 a 691 1.17 Yes Yes
1994VA1 O C 1998-11-23.18484 1.000E-05 02:30:18.230 1.500E-01 0.600 F 0.275 0.404 +14° 51' 39.20" 1.000E-01 0.600 F 0.019 -0.032 21.4 V 0.70 0.97 a 691 0.68 Yes Yes
1994VA1 O C 1998-11-23.20668 1.000E-05 02:30:16.570 1.500E-01 0.600 F 0.275 0.509 +14° 51' 21.60" 1.000E-01 0.600 F 0.019 0.075 21.7 V 0.70 1.27 a 691 0.86 Yes Yes
2012UD34 O c 1998-11-23.21946 1.000E-05 03:26:28.260 1.500E-01 0.600 F -0.337 -0.210 +17° 08' 22.40" 1.000E-01 0.600 F 0.325 -0.063 21.4 V 0.70 0.35 i 691 0.38 Yes Yes
2012UD34 O c 1998-11-23.24168 1.000E-05 03:26:26.380 1.500E-01 0.600 F -0.337 0.121 +17° 08' 22.00" 1.000E-01 0.600 F 0.325 -0.449 21.0 V 0.70 -0.06 i 691 0.78 Yes Yes
2012UD34 O c 1998-11-23.26365 1.000E-05 03:26:24.500 1.500E-01 0.600 F -0.337 0.173 +17° 08' 21.90" 1.000E-01 0.600 F 0.325 -0.489 21.2 V 0.70 0.14 i 691 0.87 Yes Yes
1998WT30 O c 1998-11-24.32569 1.000E-05 03:27:01.700 1.500E-01 0.600 F -0.106 0.181 +19° 16' 11.40" 1.000E-01 0.600 F -0.038 -0.465 21.3 V 0.70 0.60 i 691 0.83 Yes Yes
1998WT30 O c 1998-11-24.34798 1.000E-05 03:26:59.430 1.500E-01 0.600 F -0.106 -0.564 +19° 16' 04.40" 1.000E-01 0.600 F -0.038 -0.331 21.0 V 0.70 0.30 i 691 1.11 Yes Yes
1998WT30 O c 1998-11-24.37037 1.000E-05 03:26:57.270 1.500E-01 0.600 F -0.106 0.307 +19° 15' 57.20" 1.000E-01 0.600 F -0.038 -0.306 20.4 V 0.70 -0.30 i 691 0.73 Yes Yes
2012UD34 O c 1998-11-24.38949 1.000E-05 03:24:52.690 1.500E-01 0.600 F -0.337 -0.111 +17° 08' 15.90" 1.000E-01 0.600 F 0.325 -0.777 21.3 V 0.70 0.18 i 691 1.33 Yes Yes
2012UD34 O c 1998-11-24.39377 1.000E-05 03:24:52.370 1.500E-01 0.600 F -0.337 0.390 +17° 08' 16.60" 1.000E-01 0.600 F 0.325 -0.018 21.5 V 0.70 0.38 i 691 0.68 Yes Yes
2012UD34 O c 1998-11-24.39761 1.000E-05 03:24:52.040 1.500E-01 0.600 F -0.337 0.221 +17° 08' 16.20" 1.000E-01 0.600 F 0.325 -0.364 21.9 V 0.70 0.78 i 691 0.72 Yes Yes
1998WT30 O c 1998-11-25.35059 1.000E-05 03:25:23.830 1.500E-01 0.600 F -0.106 0.209 +19° 10' 49.30" 1.000E-01 0.600 F -0.038 0.000 20.8 V 0.70 0.07 i 691 0.36 Yes Yes
1998WT30 O c 1998-11-25.35466 1.000E-05 03:25:23.420 1.500E-01 0.600 F -0.106 0.117 +19° 10' 47.60" 1.000E-01 0.600 F -0.038 -0.374 20.6 V 0.70 -0.13 i 691 0.66 Yes Yes
1998WT30 O c 1998-11-25.35900 1.000E-05 03:25:23.180 1.500E-01 0.600 F -0.106 2.810 +19° 10' 45.90" 1.000E-01 0.600 F -0.038 -0.659 21.3 V 0.70 0.57 i 691 4.72 No Yes
1994VA1 O c 1998-11-26.07407 1.000E-05 02:26:58.870 1.500E-01 0.600 F 0.068 0.040 +14° 13' 10.10" 1.000E-01 0.600 F -0.277 0.091 20.1 V 0.70 -0.42 i 691 0.17 Yes Yes
1994VA1 O c 1998-11-26.09638 1.000E-05 02:26:57.350 1.500E-01 0.600 F 0.068 0.090 +14° 12' 53.20" 1.000E-01 0.600 F -0.277 0.339 20.3 V 0.70 -0.22 i 691 0.59 Yes Yes
1994VA1 O c 1998-11-26.11815 1.000E-05 02:26:55.840 1.500E-01 0.600 F 0.068 -0.129 +14° 12' 36.10" 1.000E-01 0.600 F -0.277 -0.005 20.2 V 0.70 -0.32 i 691 0.22 Yes Yes
Tatsunokingo O c 1998-11-26.12771 1.000E-05 02:49:33.010 1.500E-01 0.600 F 0.255 -0.360 +17° 23' 29.60" 1.000E-01 0.600 F 0.321 -0.110 20.7 V 0.70 -0.20 i 691 0.62 Yes Yes
Tatsunokingo O c 1998-11-26.14991 1.000E-05 02:49:30.820 1.500E-01 0.600 F 0.255 -0.140 +17° 23' 26.60" 1.000E-01 0.600 F 0.321 -0.246 20.8 V 0.70 -0.10 i 691 0.46 Yes Yes
Tatsunokingo O c 1998-11-26.17203 1.000E-05 02:49:28.640 1.500E-01 0.600 F 0.255 0.170 +17° 23' 23.40" 1.000E-01 0.600 F 0.321 -0.564 20.8 V 0.70 -0.10 i 691 0.98 Yes Yes
1998WL4 O c 1998-11-26.26720 1.000E-05 02:12:08.560 1.500E-01 0.600 F -0.240 0.486 +10° 52' 43.70" 1.000E-01 0.600 F 0.155 -0.327 21.7 V 0.70 -0.04 i 691 0.99 Yes Yes
1998WL4 O c 1998-11-26.27125 1.000E-05 02:12:08.270 1.500E-01 0.600 F -0.240 0.166 +10° 52' 39.30" 1.000E-01 0.600 F 0.155 -0.851 21.3 V 0.70 -0.45 i 691 1.47 Yes Yes
1998WL4 O c 1998-11-26.27503 1.000E-05 02:12:08.000 1.500E-01 0.600 F -0.240 -0.125 +10° 52' 36.00" 1.000E-01 0.600 F 0.155 -0.533 21.6 V 0.70 -0.15 i 691 0.93 Yes Yes
1998VD35 O c 1998-11-26.28003 1.000E-05 02:57:56.670 1.500E-01 0.600 F -0.249 0.345 +12° 12' 00.20" 1.000E-01 0.600 F 0.420 -0.099 19.6 V 0.70 -0.20 i 691 0.62 Yes Yes
1998VD35 O c 1998-11-26.28387 1.000E-05 02:57:56.070 1.500E-01 0.600 F -0.249 0.004 +12° 11' 52.90" 1.000E-01 0.600 F 0.420 -1.305 19.2 V 0.70 -0.60 i 691 2.24 Yes Yes
1998VD35 O c 1998-11-26.28777 1.000E-05 02:57:55.490 1.500E-01 0.600 F -0.249 0.086 +12° 11' 47.60" 1.000E-01 0.600 F 0.420 -0.414 19.7 V 0.70 -0.10 i 691 0.72 Yes Yes
2012UD34 O C 1998-11-26.36550 1.000E-05 03:22:17.760 1.500E-01 0.600 F -0.166 -1.721 +17° 08' 15.20" 1.000E-01 0.600 F 0.168 1.471 22.3 V 0.70 1.07 i 691 3.72 No Yes
2012UD34 O C 1998-11-26.36939 1.000E-05 03:22:17.640 1.500E-01 0.600 F -0.166 0.990 +17° 08' 14.20" 1.000E-01 0.600 F 0.168 0.503 21.6 V 0.70 0.37 i 691 1.94 Yes Yes
2012UD34 O C 1998-11-26.37329 1.000E-05 03:22:17.250 1.500E-01 0.600 F -0.166 -0.160 +17° 08' 12.10" 1.000E-01 0.600 F 0.168 -1.565 21.8 V 0.70 0.57 i 691 2.66 Yes Yes
1998WT30 O c 1998-11-26.37876 1.000E-05 03:23:45.860 1.500E-01 0.600 F 0.061 -0.033 +19° 05' 21.70" 1.000E-01 0.600 F 0.054 -0.762 20.8 V 0.70 0.04 i 691 1.28 Yes Yes
1998WT30 O c 1998-11-26.38288 1.000E-05 03:23:45.460 1.500E-01 0.600 F 0.061 0.041 +19° 05' 20.50" 1.000E-01 0.600 F 0.054 -0.594 21.2 V 0.70 0.44 i 691 1.00 Yes Yes
1998WT30 O c 1998-11-26.38776 1.000E-05 03:23:44.970 1.500E-01 0.600 F 0.061 -0.106 +19° 05' 19.00" 1.000E-01 0.600 F 0.054 -0.473 21.0 V 0.70 0.24 i 691 0.81 Yes Yes
2012UD34 O C 1998-11-27.26228 1.000E-05 03:21:10.390 1.500E-01 0.600 F -0.140 0.087 +17° 08' 15.40" 1.000E-01 0.600 F 0.022 -0.358 21.8 V 0.70 0.52 i 691 0.62 Yes Yes
2012UD34 O C 1998-11-27.26725 1.000E-05 03:21:10.010 1.500E-01 0.600 F -0.140 0.221 +17° 08' 15.70" 1.000E-01 0.600 F 0.022 -0.075 21.2 V 0.70 -0.08 i 691 0.40 Yes Yes
2012UD34 O C 1998-11-27.27271 1.000E-05 03:21:09.550 1.500E-01 0.600 F -0.140 -0.242 +17° 08' 15.70" 1.000E-01 0.600 F 0.022 -0.090 21.2 V 0.70 -0.08 i 691 0.45 Yes Yes
1998WT30 O c 1998-12-09.33709 1.000E-05 03:04:44.660 1.500E-01 0.600 F -0.467 -0.472 +17° 57' 16.40" 1.000E-01 0.600 F 0.216 -0.438 21.9 V 0.70 0.85 i 691 1.09 Yes Yes
1998WT30 O c 1998-12-09.34466 1.000E-05 03:04:44.090 1.500E-01 0.600 F -0.467 0.064 +17° 57' 14.80" 1.000E-01 0.600 F 0.216 0.275 20.6 V 0.70 -0.45 i 691 0.47 Yes Yes
1998WT30 O c 1998-12-09.35029 1.000E-05 03:04:43.710 1.500E-01 0.600 F -0.467 1.078 +17° 57' 12.10" 1.000E-01 0.600 F 0.216 -0.702 21.8 V 0.70 0.75 i 691 2.17 Yes Yes
1998XN2 O c 1998-12-14.07473 1.000E-05 02:17:43.690 1.500E-01 0.735 F 0.126 -0.268 +13° 31' 42.10" 1.000E-01 0.735 F 0.450 -0.525 17.1 V 0.70 0.05 i 691 0.81 Yes Yes
1998XN2 O c 1998-12-14.09659 1.000E-05 02:17:58.400 1.500E-01 0.735 F 0.126 -0.627 +13° 32' 38.60" 1.000E-01 0.735 F 0.450 -0.553 17.0 V 0.70 -0.05 i 691 1.15 Yes Yes
1998XN2 O c 1998-12-14.11909 1.000E-05 02:18:13.510 1.500E-01 0.735 F 0.126 -0.564 +13° 33' 36.60" 1.000E-01 0.735 F 0.450 -0.353 17.0 V 0.70 -0.05 i 691 0.91 Yes Yes
1998XN2 O c 1998-12-14.24326 1.000E-05 02:19:36.280 1.500E-01 0.735 F 0.039 -0.114 +13° 38' 48.00" 1.000E-01 0.735 F 0.342 -0.347 17.1 V 0.70 0.04 i 691 0.50 Yes Yes
1998XN2 O c 1998-12-14.25156 1.000E-05 02:19:41.800 1.500E-01 0.735 F 0.039 -0.133 +13° 39' 08.60" 1.000E-01 0.735 F 0.342 -0.119 17.2 V 0.70 0.14 i 691 0.24 Yes Yes
1998XN2 O c 1998-12-14.25946 1.000E-05 02:19:47.050 1.500E-01 0.735 F 0.039 -0.234 +13° 39' 28.10" 1.000E-01 0.735 F 0.342 0.041 17.2 V 0.70 0.14 i 691 0.32 Yes Yes
1998XN2 O c 1998-12-15.07420 1.000E-05 02:28:56.380 1.500E-01 0.600 F 0.122 -0.011 +14° 11' 38.90" 1.000E-01 0.600 F -0.234 0.185 17.2 V 0.70 0.10 i 691 0.31 Yes Yes
1998XN2 O c 1998-12-15.09601 1.000E-05 02:29:10.090 1.500E-01 0.600 F 0.122 -0.349 +14° 12' 29.40" 1.000E-01 0.600 F -0.234 0.399 17.0 V 0.70 -0.11 i 691 0.89 Yes Yes
1998XN2 O c 1998-12-15.11836 1.000E-05 02:29:24.160 1.500E-01 0.600 F 0.122 0.471 +14° 13' 20.30" 1.000E-01 0.600 F -0.234 0.132 17.2 V 0.70 0.09 i 691 0.82 Yes Yes
1998YF10 O c 1998-12-22.22277 1.000E-05 03:34:29.390 1.500E-01 0.600 F 0.103 -0.889 +14° 34' 53.30" 1.000E-01 0.600 F -0.084 0.049 19.8 V 0.70 -0.02 i 691 1.54 Yes Yes
1998YF10 O c 1998-12-22.24479 1.000E-05 03:34:29.250 1.500E-01 0.600 F 0.103 -0.812 +14° 36' 07.40" 1.000E-01 0.600 F -0.084 0.436 19.5 V 0.70 -0.32 i 691 1.57 Yes Yes
1997SE5 O C 1998-12-22.36633 1.000E-05 08:58:52.930 1.500E-01 0.600 F 0.105 -0.045 +16° 14' 12.60" 1.000E-01 0.600 F 0.093 0.276 21.0 V 0.70 -0.03 i 691 0.47 Yes Yes
1997SE5 O C 1998-12-22.38852 1.000E-05 08:58:52.160 1.500E-01 0.600 F 0.105 -0.301 +16° 14' 14.30" 1.000E-01 0.600 F 0.093 -0.550 20.7 V 0.70 -0.33 i 691 1.05 Yes Yes
1997SE5 O C 1998-12-22.41268 1.000E-05 08:58:51.400 1.500E-01 0.600 F 0.105 0.569 +16° 14' 17.20" 1.000E-01 0.600 F 0.093 -0.390 20.9 V 0.70 -0.13 i 691 1.15 Yes Yes
2000NF5 O C 1998-12-22.43452 1.000E-05 08:58:00.230 1.500E-01 0.600 F 0.075 0.107 +16° 36' 05.30" 1.000E-01 0.600 F 0.057 0.129 21.0 V 0.70 -0.22 i 691 0.28 Yes Yes
2000NF5 O C 1998-12-22.45629 1.000E-05 08:57:59.440 1.500E-01 0.600 F 0.075 -0.180 +16° 36' 09.20" 1.000E-01 0.600 F 0.057 1.461 21.2 V 0.70 -0.02 i 691 2.45 Yes Yes
2000NF5 O C 1998-12-22.47838 1.000E-05 08:57:58.650 1.500E-01 0.600 F 0.075 -0.304 +16° 36' 11.10" 1.000E-01 0.600 F 0.057 0.769 21.1 V 0.70 -0.12 i 691 1.38 Yes Yes
1998XN2 O c 1998-12-23.12796 1.000E-05 03:35:49.680 1.500E-01 0.600 F -0.044 0.348 +17° 26' 55.50" 1.000E-01 0.600 F 0.188 -0.529 17.5 V 0.70 -0.19 i 691 1.06 Yes Yes
1998XN2 O c 1998-12-23.14954 1.000E-05 03:35:57.400 1.500E-01 0.600 F -0.044 0.149 +17° 27' 15.40" 1.000E-01 0.600 F 0.188 -0.408 17.5 V 0.70 -0.19 i 691 0.73 Yes Yes
1998XN2 O c 1998-12-23.17121 1.000E-05 03:36:05.010 1.500E-01 0.600 F 0.249 -1.966 +17° 27' 34.40" 1.000E-01 0.600 F 0.251 -1.076 18.2 V 0.70 0.51 i 691 3.71 No Yes
1998YF10 O c 1998-12-24.29978 1.000E-05 03:34:45.160 1.500E-01 0.600 F 0.041 0.313 +16° 27' 28.90" 1.000E-01 0.600 F 0.454 -0.295 19.5 V 0.70 -0.44 i 691 0.73 Yes Yes
1998YF10 O c 1998-12-24.30367 1.000E-05 03:34:45.190 1.500E-01 0.600 F 0.041 0.545 +16° 27' 41.90" 1.000E-01 0.600 F 0.454 0.542 19.7 V 0.70 -0.24 i 691 1.33 Yes Yes
1998YF10 O c 1998-12-24.30851 1.000E-05 03:34:45.190 1.500E-01 0.600 F 0.041 0.284 +16° 27' 56.40" 1.000E-01 0.600 F 0.454 -0.084 19.6 V 0.70 -0.34 i 691 0.51 Yes Yes
1998YF10 O c 1998-12-25.31146 1.000E-05 03:34:59.080 1.500E-01 0.600 F -0.044 -0.069 +17° 19' 47.40" 1.000E-01 0.600 F 0.188 -0.590 20.1 V 0.70 0.10 i 691 1.01 Yes Yes
1998YF10 O c 1998-12-25.31531 1.000E-05 03:34:59.150 1.500E-01 0.600 F -0.044 0.485 +17° 19' 59.10" 1.000E-01 0.600 F 0.188 -0.540 19.9 V 0.70 -0.10 i 691 1.23 Yes Yes
1998YF10 O c 1998-12-25.31919 1.000E-05 03:34:59.140 1.500E-01 0.600 F -0.044 -0.119 +17° 20' 10.40" 1.000E-01 0.600 F 0.188 -0.976 20.1 V 0.70 0.10 i 691 1.67 Yes Yes
1998YF10 O c 1998-12-28.20419 1.000E-05 03:36:01.550 1.500E-01 0.600 F 0.076 0.705 +19° 40' 35.10" 1.000E-01 0.600 F -0.217 -0.593 20.1 V 0.70 -0.06 i 691 1.56 Yes Yes
1998YF10 O c 1998-12-28.20823 1.000E-05 03:36:01.580 1.500E-01 0.600 F 0.076 0.170 +19° 40' 46.80" 1.000E-01 0.600 F -0.217 -0.137 20.0 V 0.70 -0.16 i 691 0.37 Yes Yes
1998YF10 O c 1999-01-08.09495 1.000E-05 03:44:13.740 1.500E-01 0.735 F -0.002 -0.236 +26° 45' 42.80" 1.000E-01 0.735 F -0.552 -1.096 21.4 V 0.70 0.62 i 691 1.54 Yes Yes
1998YF10 O c 1999-01-08.10008 1.000E-05 03:44:14.030 1.500E-01 0.735 F -0.002 -0.119 +26° 45' 53.00" 1.000E-01 0.735 F -0.552 -0.965 21.1 V 0.70 0.32 i 691 1.34 Yes Yes
1998YF10 O c 1999-01-08.10644 1.000E-05 03:44:14.490 1.500E-01 0.735 F -0.002 1.382 +26° 46' 06.90" 1.000E-01 0.735 F -0.552 0.465 20.7 V 0.70 -0.09 i 691 2.02 Yes Yes
1998YF10 O c 1999-01-08.12306 1.000E-05 03:44:15.280 1.500E-01 0.735 F -0.002 -0.176 +26° 46' 38.30" 1.000E-01 0.735 F -0.552 -0.654 21.2 V 0.70 0.41 i 691 0.93 Yes Yes
1998YF10 O c 1999-01-08.12720 1.000E-05 03:44:15.510 1.500E-01 0.735 F -0.002 -0.112 +26° 46' 47.10" 1.000E-01 0.735 F -0.552 0.062 20.8 V 0.70 0.01 i 691 0.17 Yes Yes
1998YF10 O c 1999-01-08.13153 1.000E-05 03:44:15.790 1.500E-01 0.735 F -0.002 0.486 +26° 46' 54.80" 1.000E-01 0.735 F -0.552 -0.686 21.4 V 0.70 0.61 i 691 1.16 Yes Yes
1997SE5 O C 1999-01-08.32980 1.000E-05 08:47:35.860 1.500E-01 0.600 F -0.158 0.427 +16° 53' 23.20" 1.000E-01 0.600 F -0.034 -0.337 20.9 V 0.70 0.06 i 691 0.91 Yes Yes
1997SE5 O C 1999-01-08.35176 1.000E-05 08:47:34.850 1.500E-01 0.600 F -0.158 0.633 +16° 53' 25.90" 1.000E-01 0.600 F -0.034 -1.147 20.2 V 0.70 -0.64 i 691 2.19 Yes Yes
1997SE5 O C 1999-01-08.37368 1.000E-05 08:47:33.810 1.500E-01 0.600 F -0.158 0.392 +16° 53' 30.40" 1.000E-01 0.600 F -0.034 -0.139 20.3 V 0.70 -0.54 i 691 0.69 Yes Yes
2000NF5 O C 1999-01-08.40046 1.000E-05 08:45:07.690 1.500E-01 0.600 F -0.158 0.501 +17° 21' 34.20" 1.000E-01 0.600 F -0.034 -0.219 20.6 V 0.70 -0.24 i 691 0.91 Yes Yes
2000NF5 O C 1999-01-08.42238 1.000E-05 08:45:06.350 1.500E-01 0.600 F -0.158 -0.684 +17° 21' 39.40" 1.000E-01 0.600 F -0.034 0.712 19.8 V 0.70 -1.04 i 691 1.65 Yes Yes
2000NF5 O C 1999-01-08.44450 1.000E-05 08:45:05.160 1.500E-01 0.600 F -0.158 0.432 +17° 21' 42.70" 1.000E-01 0.600 F -0.034 -0.280 20.6 V 0.70 -0.24 i 691 0.86 Yes Yes
1998XM2 O c 1999-01-13.10853 1.000E-05 01:59:30.320 1.500E-01 0.600 F 0.117 0.195 +10° 32' 16.20" 1.000E-01 0.600 F 0.212 -0.057 20.1 V 0.70 0.34 i 691 0.34 Yes Yes
1998XM2 O c 1999-01-13.14026 1.000E-05 01:59:35.100 1.500E-01 0.600 F 0.117 0.360 +10° 32' 00.80" 1.000E-01 0.600 F 0.212 -0.119 20.0 V 0.70 0.23 i 691 0.64 Yes Yes
1998XM2 O c 1999-01-13.17258 1.000E-05 01:59:39.990 1.500E-01 0.600 F 0.117 0.750 +10° 31' 45.40" 1.000E-01 0.600 F 0.212 0.131 19.7 V 0.70 -0.07 i 691 1.28 Yes Yes
1998XM2 O c 1999-01-14.17504 1.000E-05 02:02:12.930 1.500E-01 0.600 F -0.163 0.036 +10° 23' 54.70" 1.000E-01 0.600 F 0.021 -0.510 20.1 V 0.70 0.30 i 691 0.85 Yes Yes
1998XM2 O c 1999-01-14.17908 1.000E-05 02:02:13.540 1.500E-01 0.600 F -0.163 0.119 +10° 23' 53.00" 1.000E-01 0.600 F 0.021 -0.344 20.3 V 0.70 0.50 i 691 0.61 Yes Yes
1999AJ39 O C 1999-01-15.22816 1.000E-05 08:21:30.720 1.500E-01 0.600 F 0.179 -0.998 +20° 08' 17.00" 1.000E-01 0.600 F -0.867 0.512 22.6 V 0.70 1.48 a 691 1.92 Yes Yes
1999AJ39 O C 1999-01-15.25041 1.000E-05 08:21:26.810 1.500E-01 0.600 F 0.179 -0.285 +20° 08' 10.70" 1.000E-01 0.600 F -0.867 0.853 22.6 V 0.70 1.48 a 691 1.52 Yes Yes
1999AJ39 O C 1999-01-15.27452 1.000E-05 08:21:22.460 1.500E-01 0.600 F 0.179 -0.914 +20° 08' 03.10" 1.000E-01 0.600 F -0.867 0.552 22.5 V 0.70 1.38 a 691 1.83 Yes Yes
1999AJ39 O C 1999-01-16.37866 1.000E-05 08:18:10.330 1.500E-01 0.600 F 0.179 0.721 +20° 02' 05.70" 1.000E-01 0.600 F -0.867 0.505 22.2 V 0.70 1.15 a 691 1.48 Yes Yes
1999AJ39 O C 1999-01-16.40226 1.000E-05 08:18:06.060 1.500E-01 0.600 F -0.108 0.882 +20° 01' 58.00" 1.000E-01 0.600 F -0.547 0.524 22.0 V 0.70 0.96 a 691 1.73 Yes Yes
1999AJ39 O C 1999-01-16.42567 1.000E-05 08:18:01.840 1.500E-01 0.600 F -0.108 0.852 +20° 01' 50.50" 1.000E-01 0.600 F -0.547 1.107 22.7 V 0.70 1.66 a 691 2.34 Yes Yes
1998XM2 O c 1999-01-17.12305 1.000E-05 02:09:36.840 1.500E-01 0.600 F 0.122 -0.116 +10° 03' 00.50" 1.000E-01 0.600 F 0.038 -0.026 20.3 V 0.70 0.41 i 691 0.20 Yes Yes
1998XM2 O c 1999-01-17.12678 1.000E-05 02:09:37.390 1.500E-01 0.600 F 0.122 -0.049 +10° 02' 59.00" 1.000E-01 0.600 F 0.038 -0.046 20.3 V 0.70 0.41 i 691 0.11 Yes Yes
1998XM2 O c 1999-01-17.13200 1.000E-05 02:09:38.170 1.500E-01 0.600 F 0.122 0.195 +10° 02' 56.90" 1.000E-01 0.600 F 0.038 -0.072 20.3 V 0.70 0.41 i 691 0.35 Yes Yes
1999BL33 O c 1999-01-17.33185 1.000E-05 08:55:32.700 1.500E-01 0.600 F 0.117 -0.034 +16° 33' 22.90" 1.000E-01 0.600 F 0.053 0.327 20.2 V 0.70 -0.16 i 691 0.63 Yes Yes
1999BL33 O c 1999-01-17.35379 1.000E-05 08:55:35.050 1.500E-01 0.600 F 0.117 -0.144 +16° 34' 07.90" 1.000E-01 0.600 F 0.053 0.514 20.8 V 0.70 0.44 i 691 1.03 Yes Yes
1997SE5 O C 1999-01-17.38790 1.000E-05 08:40:24.550 1.500E-01 0.600 F 0.212 -0.287 +17° 18' 12.10" 1.000E-01 0.600 F 0.079 0.018 21.6 V 0.70 0.88 a 691 0.48 Yes Yes
1997SE5 O C 1999-01-17.40959 1.000E-05 08:40:23.470 1.500E-01 0.600 F 0.212 -0.223 +17° 18' 15.50" 1.000E-01 0.600 F 0.079 -0.192 21.3 V 0.70 0.58 a 691 0.49 Yes Yes
1997SE5 O C 1999-01-17.43112 1.000E-05 08:40:22.400 1.500E-01 0.600 F 0.212 -0.145 +17° 18' 19.30" 1.000E-01 0.600 F 0.079 0.035 21.6 V 0.70 0.88 a 691 0.25 Yes Yes

[1-200] [201-400] [401-600] [601-800] [801-1000] [1001-1200] [1201-1400] [1401-1600] [1601-1800] [1801-2000] [2001-2200] [2201-2400] [2401-2600] [2601-2800] [2801-3000] [3001-3200] [3201-3400] [3401-3600] [3601-3800] [3801-4000] [4001-4200] [4201-4400] [4401-4600] [4601-4800] [4801-5000] [5001-5200] [5201-5400] [5401-5600] [5601-5800] [5801-6000] [6001-6200] [6201-6400] [6401-6600] [6601-6800] [6801-7000] [7001-7200] [7201-7400] [7401-7600] [7601-7800] [7801-8000] [8001-8200] [8201-8400] [8401-8600] [8601-8800] [8801-9000] [9001-9200] [9201-9400] [9401-9600] [9601-9800] [9801-10000] [10001-10200] [10201-10400] [10401-10600] [10601-10800] [10801-11000] [11001-11200] [11201-11400] [11401-11600] [11601-11800] [11801-12000] [12001-12200] [12201-12400] [12401-12600] [12601-12800] [12801-13000] [13001-13200] [13201-13400] [13401-13600] [13601-13800] [13801-14000] [14001-14200] [14201-14400] [14401-14600] [14601-14800] [14801-15000] [15001-15200] [15201-15400] [15401-15600] [15601-15800] [15801-16000] [16001-16200] [16201-16400] [16401-16600] [16601-16800] [16801-17000] [17001-17200] [17201-17400] [17401-17600] [17601-17800] [17801-18000] [18001-18200] [18201-18400] [18401-18600] [18601-18800] [18801-19000] [19001-19200] [19201-19400] [19401-19600] [19601-19800] [19801-20000] [20001-20200] [20201-20400] [20401-20600] [20601-20800] [20801-21000] [21001-21200] [21201-21400] [21401-21600] [21601-21800] [21801-22000] [22001-22200] [22201-22400] [22401-22600] [22601-22800] [22801-23000] [23001-23200] [23201-23400] [23401-23600] [23601-23800] [23801-24000] [24001-24200] [24201-24400] [24401-24600] [24601-24800] [24801-25000] [25001-25200] [25201-25400] [25401-25600] [25601-25800] [25801-26000] [26001-26200] [26201-26400] [26401-26600] [26601-26800] [26801-27000] [27001-27200] [27201-27400] [27401-27600] [27601-27800] [27801-28000] [28001-28200] [28201-28400] [28401-28600] [28601-28800] [28801-29000] [29001-29200] [29201-29400] [29401-29600] [29601-29800] [29801-30000] [30001-30200] [30201-30400] [30401-30600] [30601-30800] [30801-31000] [31001-31200] [31201-31400] [31401-31600] [31601-31800] [31801-32000] [32001-32200] [32201-32400] [32401-32600] [32601-32800] [32801-33000] [33001-33200] [33201-33400] [33401-33600] [33601-33800] [33801-34000] [34001-34200] [34201-34400] [34401-34600] [34601-34800] [34801-35000] [35001-35200] [35201-35400] [35401-35600] [35601-35800] [35801-36000] [36001-36200] [36201-36400] [36401-36600] [36601-36800] [36801-37000] [37001-37200] [37201-37400] [37401-37600] [37601-37800] [37801-38000] [38001-38200] [38201-38400] [38401-38600] [38601-38800] [38801-39000] [39001-39200] [39201-39400] [39401-39600] [39601-39800] [39801-40000] [40001-40200] [40201-40400] [40401-40600] [40601-40800] [40801-41000] [41001-41200] [41201-41400] [41401-41600] [41601-41800] [41801-42000] [42001-42200] [42201-42400] [42401-42600] [42601-42800] [42801-43000] [43001-43200] [43201-43400] [43401-43600] [43601-43800] [43801-44000] [44001-44200] [44201-44400] [44401-44600] [44601-44800] [44801-45000] [45001-45200] [45201-45400] [45401-45600] [45601-45800] [45801-46000] [46001-46200] [46201-46400] [46401-46600] [46601-46800] [46801-47000] [47001-47200] [47201-47400] [47401-47600] [47601-47800] [47801-48000] [48001-48200] [48201-48400] [48401-48600] [48601-48800] [48801-49000] [49001-49200] [49201-49400] [49401-49600] [49601-49800] [49801-50000] [50001-50200] [50201-50388]